Wetterdaten: aktuell Mittwoch, 22.10.2014 02:48
Datum Zeit Temperatur Feuchte Luftdruck Regen Wind Richtung Richtung Taupunkt Windchill
22.10.2014 02:48 6,6 C 96 % 1011,1 hPa 0,4 l/m 33,5 km/h (5 Bft) SW22.5 235 6,0 C 1,9 C
22.10.2014 01:48 6,4 C 95 % 1010,1 hPa 0,4 l/m 22,8 km/h (4 Bft) S-SW45 210 5,7 C 2,5 C
22.10.2014 00:48 6,6 C 95 % 1010,1 hPa 0,0 l/m 20,2 km/h (4 Bft) SW22.5 235 5,9 C 3,1 C
21.10.2014 23:48 6,5 C 95 % 1008,0 hPa 0,4 l/m 32,5 km/h (5 Bft) W-SW22.5 255 5,8 C 1,8 C
21.10.2014 22:48 7,1 C 94 % 1007,0 hPa 1,4 l/m 18,0 km/h (3 Bft) W45 260 6,2 C 3,9 C
21.10.2014 21:48 7,9 C 92 % 1005,9 hPa 2,2 l/m 18,6 km/h (3 Bft) W-SW45 245 6,7 C 4,9 C
21.10.2014 20:48 8,2 C 90 % 1003,8 hPa 0,0 l/m 0,0 km/h (0 Bft) SW22.5 235 6,7 C 8,2 C
21.10.2014 19:48 8,4 C 92 % 1003,8 hPa 0,4 l/m 0,0 km/h (0 Bft) SW22.5 230 7,2 C 8,4 C
21.10.2014 18:48 9,6 C 92 % 1001,6 hPa 0,4 l/m 34,3 km/h (5 Bft) SW22.5 235 8,4 C 5,8 C
21.10.2014 17:48 10,4 C 95 % 1000,5 hPa 0,0 l/m 18,4 km/h (3 Bft) SW45 215 9,6 C 10,4 C
21.10.2014 16:48 11,6 C 97 % 998,4 hPa 3,6 l/m 10,6 km/h (2 Bft) SW22.5 230 11,1 C 11,6 C
21.10.2014 15:48 11,3 C 98 % 999,4 hPa 1,4 l/m 28,5 km/h (4 Bft) S-SO45 165 11,0 C 11,3 C
21.10.2014 14:48 11,0 C 98 % 1000,5 hPa 0,0 l/m 17,6 km/h (3 Bft) S-SO67.5 155 10,7 C 11,0 C
21.10.2014 13:48 10,9 C 96 % 1001,5 hPa 3,6 l/m 25,1 km/h (4 Bft) SO45 145 10,3 C 10,9 C
21.10.2014 12:48 11,8 C 89 % 1003,5 hPa 1,1 l/m 24,0 km/h (4 Bft) S67.5 175 10,0 C 11,8 C
21.10.2014 11:48 12,0 C 87 % 1004,5 hPa 0,0 l/m 27,0 km/h (4 Bft) S67.5 170 9,9 C 12,0 C
21.10.2014 10:48 12,0 C 87 % 1005,5 hPa 0,0 l/m 35,5 km/h (5 Bft) S-SO45 165 9,9 C 12,0 C
21.10.2014 09:48 11,3 C 89 % 1007,6 hPa 0,0 l/m 20,3 km/h (4 Bft) S-SO67.5 155 9,6 C 11,3 C
21.10.2014 08:48 11,0 C 93 % 1008,7 hPa 0,0 l/m 16,5 km/h (3 Bft) S-SO67.5 155 9,9 C 11,0 C
21.10.2014 07:48 10,8 C 95 % 1008,7 hPa 0,0 l/m 17,3 km/h (3 Bft) SO67.5 145 10,0 C 10,8 C
21.10.2014 06:48 10,6 C 97 % 1009,7 hPa 0,0 l/m 19,7 km/h (3 Bft) S-SO45 150 10,1 C 10,6 C
21.10.2014 05:48 10,4 C 96 % 1009,8 hPa 0,0 l/m 11,6 km/h (2 Bft) S-SO 150 9,8 C 10,4 C
21.10.2014 04:45 10,6 C 96 % 1010,8 hPa 0,0 l/m 17,0 km/h (3 Bft) S-SO45 155 10,0 C 10,6 C
21.10.2014 03:45 10,4 C 95 % 1011,8 hPa 0,0 l/m 8,6 km/h (2 Bft) S-SO45 160 9,6 C 10,4 C
21.10.2014 03:00 10,7 C 95 % 1012,8 hPa 0,0 l/m 12,7 km/h (3 Bft) S45 180 9,9 C 10,7 C
_ Min-Zeit 01:33 12:12 16:27 - 16:39 - - 23:36 02:09
Minimum _ 6,4 C 85 % 998,4 hPa - 0,0 km/h (0 Bft) - - 5,6 C 1,7 C
_ Max-Zeit 12:21 14:27 03:24 16:30 16:27 - - 16:27 12:21
Maximum _ 12,5 C 98 % 1012,8 hPa 1,4 l/m 43,5 km/h
S-SW (6 Bft)
- - 11,7 C 12,5 C
Durchschnitt _ 9,9 C 94 % 1006,5 hPa #15,1 l/m 18,1 km/h (3 Bft) S-SO - 8,9 C 9,0 C